Time;durP1;ratioP1;P1;durP2;ratioP2;P2;SDS_P1;SDS_P2;PMS_P1;PMS_P2;Temp;Humidity;BMP_temperature;BMP_pressure;BME280_temperature;BME280_humidity;BME280_pressure;Samples;Min_cycle;Max_cycle;Signal;HPM_P1;HPM_P2
2021/07/12 00:00:49;;;;;;;6.90;6.20;;;18.60;99.90;;;;;;4996084;28;20040;-85
2021/07/12 00:03:15;;;;;;;8.52;7.55;;;18.60;99.90;;;;;;5008128;28;20102;-86
2021/07/12 00:05:41;;;;;;;8.40;7.47;;;18.60;99.90;;;;;;4995307;28;20579;-88
2021/07/12 00:08:10;;;;;;;9.18;8.18;;;18.60;99.90;;;;;;4995717;28;21006;-87
2021/07/12 00:10:37;;;;;;;9.88;8.18;;;18.50;99.90;;;;;;4996829;28;20068;-85
2021/07/12 00:13:03;;;;;;;8.27;7.43;;;18.50;99.90;;;;;;4990077;28;20479;-86
2021/07/12 00:15:29;;;;;;;8.98;8.07;;;18.50;99.90;;;;;;5002250;28;20128;-86
2021/07/12 00:17:55;;;;;;;9.02;8.13;;;18.40;99.90;;;;;;4994524;28;20041;-87
2021/07/12 00:20:22;;;;;;;9.27;8.23;;;18.40;99.90;;;;;;5010437;28;20029;-86
2021/07/12 00:22:49;;;;;;;9.20;8.00;;;18.40;99.90;;;;;;4999670;28;20025;-87
2021/07/12 00:25:17;;;;;;;9.38;8.35;;;18.50;99.90;;;;;;5004858;28;20562;-85
2021/07/12 00:27:43;;;;;;;8.70;7.80;;;18.50;99.90;;;;;;5006188;28;20034;-86
2021/07/12 00:30:12;;;;;;;9.95;8.32;;;18.50;99.90;;;;;;4997725;28;20046;-85
2021/07/12 00:32:38;;;;;;;8.63;7.72;;;18.50;99.90;;;;;;4975338;28;20731;-86
2021/07/12 00:35:05;;;;;;;9.48;8.43;;;18.50;99.90;;;;;;4990334;28;20057;-87
2021/07/12 00:37:31;;;;;;;9.27;8.05;;;18.50;99.90;;;;;;5003861;28;20065;-88
2021/07/12 00:39:57;;;;;;;8.23;7.40;;;18.50;99.90;;;;;;4995173;28;20063;-88
2021/07/12 00:42:23;;;;;;;9.60;8.10;;;18.50;99.90;;;;;;5011571;28;20033;-88
2021/07/12 00:44:48;;;;;;;10.27;8.60;;;18.40;99.90;;;;;;4996599;28;20045;-88
2021/07/12 00:47:14;;;;;;;8.57;7.60;;;18.40;99.90;;;;;;4996196;28;20117;-88
2021/07/12 00:49:40;;;;;;;10.20;8.43;;;18.40;99.90;;;;;;4996190;28;20057;-88
2021/07/12 00:52:06;;;;;;;11.00;8.02;;;18.40;99.90;;;;;;5013022;28;20046;-86
2021/07/12 00:54:32;;;;;;;7.90;7.05;;;18.40;99.90;;;;;;4996612;28;20038;-86
2021/07/12 00:56:59;;;;;;;8.75;7.43;;;18.40;99.90;;;;;;5001915;28;20121;-87
2021/07/12 00:59:26;;;;;;;8.52;7.63;;;18.40;99.90;;;;;;5034962;28;20496;-87
2021/07/12 01:01:53;;;;;;;9.35;7.18;;;18.40;99.90;;;;;;5019854;28;20622;-88
2021/07/12 01:04:19;;;;;;;9.00;8.07;;;18.40;99.90;;;;;;5020079;28;20496;-87
2021/07/12 01:06:46;;;;;;;9.88;8.07;;;18.30;99.90;;;;;;5017078;28;20564;-89
2021/07/12 01:09:13;;;;;;;8.95;7.78;;;18.30;99.90;;;;;;5002478;28;20069;-87
2021/07/12 01:11:48;;;;;;;9.43;8.10;;;18.20;99.90;;;;;;5015093;28;20305;-89
2021/07/12 01:14:56;;;;;;;9.25;7.70;;;18.20;99.90;;;;;;5022862;28;20032;-88
2021/07/12 01:17:41;;;;;;;9.70;7.57;;;18.20;99.90;;;;;;4934801;29;20048;-86
2021/07/12 01:20:35;;;;;;;7.85;6.85;;;18.10;99.90;;;;;;4932357;29;20031;-85
2021/07/12 01:23:23;;;;;;;7.85;7.05;;;18.10;99.90;;;;;;4932785;29;20042;-88
2021/07/12 01:26:40;;;;;;;8.68;7.43;;;18.10;99.90;;;;;;4978880;28;20030;-88
2021/07/12 01:29:20;;;;;;;7.72;6.93;;;18.10;99.90;;;;;;4995795;28;20085;-86
2021/07/12 01:32:24;;;;;;;7.90;7.10;;;18.10;99.90;;;;;;5026097;28;20052;-87
2021/07/12 01:34:53;;;;;;;7.93;7.13;;;18.10;99.90;;;;;;4992778;28;20124;-87
2021/07/12 01:37:24;;;;;;;7.57;6.70;;;18.00;99.90;;;;;;5020496;28;20045;-86
2021/07/12 01:40:03;;;;;;;8.68;6.60;;;18.00;99.90;;;;;;5037157;28;20069;-88
2021/07/12 01:42:37;;;;;;;9.40;7.80;;;18.00;99.90;;;;;;5003359;28;20116;-86
2021/07/12 01:45:06;;;;;;;8.32;7.35;;;18.00;99.90;;;;;;5019664;28;20114;-86
2021/07/12 01:47:50;;;;;;;10.45;8.43;;;18.00;99.90;;;;;;5006985;28;20065;-87
2021/07/12 01:50:35;;;;;;;8.00;7.20;;;17.90;99.90;;;;;;5016429;28;20073;-85
2021/07/12 01:53:16;;;;;;;8.55;7.38;;;17.80;99.90;;;;;;5006081;28;20059;-86
2021/07/12 01:56:00;;;;;;;8.45;6.97;;;17.80;99.90;;;;;;5006106;28;20037;-87
2021/07/12 01:58:47;;;;;;;9.38;7.43;;;17.80;99.90;;;;;;5013798;28;20497;-86
2021/07/12 02:01:15;;;;;;;7.75;6.82;;;17.70;99.90;;;;;;5024980;28;20036;-87
2021/07/12 02:03:42;;;;;;;8.43;7.32;;;17.70;99.90;;;;;;5016026;28;20038;-86
2021/07/12 02:06:09;;;;;;;8.25;7.32;;;17.70;99.90;;;;;;5002596;28;20116;-89
2021/07/12 02:08:47;;;;;;;10.25;7.57;;;17.70;99.90;;;;;;5001723;28;20100;-87
2021/07/12 02:11:18;;;;;;;9.25;8.27;;;17.70;99.90;;;;;;5000540;28;20034;-88
2021/07/12 02:13:47;;;;;;;8.15;7.20;;;17.70;99.90;;;;;;5001338;28;20468;-88
2021/07/12 02:16:29;;;;;;;8.60;7.40;;;17.70;99.90;;;;;;5001309;28;20033;-88
2021/07/12 02:18:56;;;;;;;9.60;7.95;;;17.70;99.90;;;;;;5001836;28;20021;-87
2021/07/12 02:21:22;;;;;;;8.98;8.07;;;17.60;99.90;;;;;;4992861;28;20057;-88
2021/07/12 02:23:53;;;;;;;8.82;7.85;;;17.70;99.90;;;;;;5001707;28;20105;-88
2021/07/12 02:26:20;;;;;;;8.98;7.93;;;17.60;99.90;;;;;;4988064;28;20396;-87
2021/07/12 02:28:48;;;;;;;9.90;8.50;;;17.60;99.90;;;;;;4996384;28;20555;-88
2021/07/12 02:31:15;;;;;;;9.52;8.18;;;17.50;99.90;;;;;;5000923;28;20034;-87
2021/07/12 02:33:42;;;;;;;9.27;8.27;;;17.50;99.90;;;;;;5001454;28;20061;-85
2021/07/12 02:36:09;;;;;;;9.18;8.00;;;17.50;99.90;;;;;;5001173;28;20029;-87
2021/07/12 02:38:38;;;;;;;9.77;8.32;;;17.40;99.90;;;;;;5002048;28;20058;-86
2021/07/12 02:41:04;;;;;;;8.95;8.05;;;17.40;99.90;;;;;;4986354;28;20037;-87
2021/07/12 02:43:32;;;;;;;10.27;9.07;;;17.40;99.90;;;;;;4980932;28;20078;-88
2021/07/12 02:45:58;;;;;;;10.52;8.80;;;17.40;99.90;;;;;;4981540;28;20027;-87
2021/07/12 02:48:24;;;;;;;10.65;8.43;;;17.40;99.90;;;;;;4983759;28;20023;-87
2021/07/12 02:50:52;;;;;;;9.70;8.50;;;17.40;99.90;;;;;;4991556;28;20066;-84
2021/07/12 02:53:22;;;;;;;9.77;8.13;;;17.30;99.90;;;;;;4989733;23;20042;-86
2021/07/12 02:55:48;;;;;;;9.85;7.50;;;17.30;99.90;;;;;;4963132;28;20094;-88
2021/07/12 02:58:17;;;;;;;9.90;8.30;;;17.30;99.90;;;;;;4962393;28;20031;-87
2021/07/12 03:00:43;;;;;;;9.00;7.63;;;17.40;99.90;;;;;;4961970;28;20496;-86
2021/07/12 03:03:09;;;;;;;9.27;8.18;;;17.30;99.90;;;;;;4962305;28;20023;-88
2021/07/12 03:05:35;;;;;;;9.98;8.48;;;17.20;99.90;;;;;;4979105;28;20039;-87
2021/07/12 03:08:25;;;;;;;9.73;8.65;;;17.20;99.90;;;;;;4979003;28;20027;-86
2021/07/12 03:10:54;;;;;;;9.32;8.32;;;17.20;99.90;;;;;;4963034;28;20758;-88
2021/07/12 03:13:28;;;;;;;10.85;8.82;;;17.20;99.90;;;;;;4962645;28;20030;-86
2021/07/12 03:15:56;;;;;;;10.25;9.15;;;17.20;99.90;;;;;;4962336;28;20437;-85
2021/07/12 03:18:28;;;;;;;10.30;9.00;;;17.10;99.90;;;;;;4978465;28;20035;-86
2021/07/12 03:20:57;;;;;;;10.17;8.60;;;17.10;99.90;;;;;;4962596;28;20400;-88
2021/07/12 03:23:24;;;;;;;9.90;8.57;;;17.10;99.90;;;;;;4961768;28;20094;-88
2021/07/12 03:25:57;;;;;;;9.55;8.27;;;17.10;99.90;;;;;;4962119;28;20049;-87
2021/07/12 03:28:23;;;;;;;9.85;8.85;;;17.10;99.90;;;;;;4962818;28;20031;-87
2021/07/12 03:30:50;;;;;;;9.93;8.77;;;17.00;99.90;;;;;;4962942;28;20126;-88
2021/07/12 03:33:19;;;;;;;12.05;9.48;;;17.00;99.90;;;;;;4962677;28;20058;-87
2021/07/12 03:35:48;;;;;;;10.35;8.80;;;17.10;99.90;;;;;;4978616;28;20023;-87
2021/07/12 03:38:18;;;;;;;9.65;8.45;;;17.00;99.90;;;;;;4961160;28;20031;-86
2021/07/12 03:40:45;;;;;;;11.85;9.07;;;17.00;99.90;;;;;;4945655;28;20090;-88
2021/07/12 03:43:15;;;;;;;11.00;8.93;;;17.00;99.90;;;;;;4978844;28;20160;-87
2021/07/12 03:45:43;;;;;;;9.95;8.05;;;17.00;99.90;;;;;;4961707;28;20038;-87
2021/07/12 03:48:09;;;;;;;11.13;8.73;;;17.00;99.90;;;;;;4962079;28;20584;-88
2021/07/12 03:50:35;;;;;;;10.25;9.18;;;17.00;99.90;;;;;;4960758;28;20492;-89
2021/07/12 03:53:02;;;;;;;12.02;8.93;;;17.00;99.90;;;;;;4960145;28;20035;-88
2021/07/12 03:55:31;;;;;;;11.43;9.40;;;17.00;99.90;;;;;;4977270;28;20113;-86
2021/07/12 03:58:03;;;;;;;10.85;8.82;;;17.00;99.90;;;;;;4959248;28;20126;-86
2021/07/12 04:00:30;;;;;;;10.93;9.75;;;17.00;99.90;;;;;;4958613;28;20509;-87
2021/07/12 04:02:56;;;;;;;10.93;9.63;;;17.00;99.90;;;;;;4959207;28;20022;-85
2021/07/12 04:05:25;;;;;;;10.98;9.25;;;17.00;99.90;;;;;;4977223;28;20111;-87
2021/07/12 04:07:53;;;;;;;11.30;9.65;;;17.00;99.90;;;;;;4959794;28;20031;-86
2021/07/12 04:10:20;;;;;;;11.57;10.13;;;17.00;99.90;;;;;;4975850;28;20253;-88
2021/07/12 04:12:46;;;;;;;10.95;9.82;;;17.00;99.90;;;;;;4959569;28;20054;-87
2021/07/12 04:15:14;;;;;;;11.27;9.52;;;17.00;99.90;;;;;;4959401;28;20031;-88
2021/07/12 04:17:44;;;;;;;11.57;10.23;;;17.00;99.90;;;;;;4977131;28;20042;-85
2021/07/12 04:20:10;;;;;;;11.57;9.20;;;17.10;99.90;;;;;;4978247;28;20109;-82
2021/07/12 04:22:36;;;;;;;10.38;9.20;;;17.10;99.90;;;;;;4984951;28;20046;-86
2021/07/12 04:25:04;;;;;;;12.52;9.68;;;17.10;99.90;;;;;;4964045;28;20035;-87
2021/07/12 04:27:29;;;;;;;11.38;9.98;;;17.20;99.90;;;;;;4960823;28;20519;-86
2021/07/12 04:29:55;;;;;;;11.95;10.55;;;17.20;99.90;;;;;;4961794;28;20125;-88
2021/07/12 04:32:21;;;;;;;10.85;9.52;;;17.20;99.90;;;;;;4962551;28;20039;-88
2021/07/12 04:34:47;;;;;;;11.60;10.40;;;17.30;99.90;;;;;;4958844;28;20121;-85
2021/07/12 04:37:12;;;;;;;11.07;9.90;;;17.40;99.90;;;;;;4954489;28;20026;-88
2021/07/12 04:39:41;;;;;;;12.77;10.57;;;17.40;99.90;;;;;;4958725;28;20358;-87
2021/07/12 04:42:08;;;;;;;11.13;9.73;;;17.50;99.90;;;;;;4942266;29;20038;-87
2021/07/12 04:44:33;;;;;;;11.95;10.18;;;17.50;99.90;;;;;;4942374;28;20034;-86
2021/07/12 04:47:01;;;;;;;11.70;9.82;;;17.50;99.90;;;;;;4952068;29;20126;-87
2021/07/12 04:49:27;;;;;;;11.93;9.77;;;17.60;99.90;;;;;;4935528;28;20073;-88
2021/07/12 04:51:55;;;;;;;12.55;10.48;;;17.70;99.90;;;;;;4947394;28;20071;-88
2021/07/12 04:54:21;;;;;;;14.13;10.82;;;17.70;99.90;;;;;;4939405;29;20063;-86
2021/07/12 04:56:47;;;;;;;12.20;10.68;;;17.80;99.90;;;;;;4943204;28;20038;-88
2021/07/12 04:59:13;;;;;;;12.05;10.20;;;17.80;99.90;;;;;;4949649;29;20478;-89
2021/07/12 05:01:40;;;;;;;12.73;10.93;;;17.90;99.90;;;;;;4952880;28;20543;-88
2021/07/12 05:04:07;;;;;;;13.82;11.40;;;17.90;99.90;;;;;;4959426;28;20046;-89
2021/07/12 05:06:34;;;;;;;12.80;11.20;;;18.00;99.90;;;;;;4970914;28;20448;-88
2021/07/12 05:09:00;;;;;;;13.68;11.15;;;18.00;99.90;;;;;;4980226;28;20042;-90
2021/07/12 05:11:28;;;;;;;13.43;11.70;;;18.10;99.90;;;;;;4968395;28;20051;-92
2021/07/12 05:13:54;;;;;;;12.57;11.23;;;18.10;99.90;;;;;;4959097;28;20019;-87
2021/07/12 05:16:20;;;;;;;13.43;11.13;;;18.20;99.90;;;;;;4941288;28;20043;-88
2021/07/12 05:18:47;;;;;;;13.20;11.07;;;18.30;99.90;;;;;;4946724;28;20432;-86
2021/07/12 05:21:12;;;;;;;12.68;10.73;;;18.30;99.90;;;;;;4948852;29;20094;-86
2021/07/12 05:23:38;;;;;;;12.13;10.48;;;18.30;99.90;;;;;;4960617;28;20087;-86
2021/07/12 05:26:05;;;;;;;14.40;12.00;;;18.40;99.90;;;;;;4957139;28;20083;-87
2021/07/12 05:28:31;;;;;;;13.35;11.35;;;18.50;99.90;;;;;;4955051;29;20033;-88
2021/07/12 05:30:57;;;;;;;13.75;11.15;;;18.60;99.90;;;;;;4945219;28;20129;-87
2021/07/12 05:33:23;;;;;;;14.63;11.50;;;18.60;99.90;;;;;;4958853;28;20082;-85
2021/07/12 05:35:48;;;;;;;14.20;11.95;;;18.70;99.90;;;;;;4976308;28;20041;-86
2021/07/12 05:38:16;;;;;;;14.35;12.40;;;18.70;99.90;;;;;;4976445;28;20095;-86
2021/07/12 05:40:42;;;;;;;15.63;12.40;;;18.80;99.90;;;;;;4976219;28;20077;-85
2021/07/12 05:43:08;;;;;;;12.68;11.32;;;18.80;99.90;;;;;;4975908;28;20038;-87
2021/07/12 05:45:36;;;;;;;13.73;11.43;;;18.90;99.90;;;;;;4955150;28;20070;-87
2021/07/12 05:48:02;;;;;;;13.32;11.90;;;18.90;99.90;;;;;;4978087;28;20042;-86
2021/07/12 05:50:28;;;;;;;14.10;11.82;;;18.90;99.90;;;;;;4958586;29;20047;-84
2021/07/12 05:52:54;;;;;;;15.88;12.90;;;19.00;99.90;;;;;;4964262;29;20042;-83
2021/07/12 05:55:20;;;;;;;14.63;12.07;;;19.10;99.90;;;;;;4967251;28;20064;-87
2021/07/12 05:57:45;;;;;;;13.40;11.40;;;19.10;99.90;;;;;;4962666;28;20045;-85
2021/07/12 06:00:12;;;;;;;12.98;10.80;;;19.20;99.90;;;;;;4987401;28;20030;-87
2021/07/12 06:02:42;;;;;;;13.40;11.57;;;19.30;99.90;;;;;;4982836;28;20038;-86
2021/07/12 06:05:11;;;;;;;14.13;12.52;;;19.30;99.90;;;;;;4994794;28;20477;-86
2021/07/12 06:07:37;;;;;;;13.65;11.15;;;19.40;99.90;;;;;;4962148;28;20058;-86
2021/07/12 06:10:05;;;;;;;13.52;11.40;;;19.50;99.90;;;;;;4961757;28;20043;-86
2021/07/12 06:12:31;;;;;;;12.75;11.10;;;19.60;99.90;;;;;;4961014;28;20030;-87
2021/07/12 06:14:57;;;;;;;12.48;11.15;;;19.60;99.90;;;;;;4960647;28;20461;-86
2021/07/12 06:17:25;;;;;;;12.70;11.05;;;19.70;99.90;;;;;;4961415;28;20042;-85
2021/07/12 06:19:51;;;;;;;14.60;12.93;;;19.80;99.90;;;;;;4961029;28;20386;-86
2021/07/12 06:22:17;;;;;;;19.90;17.80;;;19.90;99.90;;;;;;4960560;28;20027;-86
2021/07/12 06:24:43;;;;;;;20.42;18.33;;;20.00;99.90;;;;;;4961263;28;20151;-88
2021/07/12 06:27:09;;;;;;;17.20;15.43;;;20.00;99.90;;;;;;4961216;28;20061;-86
2021/07/12 06:29:34;;;;;;;19.52;17.38;;;20.00;99.90;;;;;;4977530;28;20035;-86
2021/07/12 06:32:06;;;;;;;19.00;17.10;;;20.10;99.90;;;;;;4960376;28;20446;-87
2021/07/12 06:34:31;;;;;;;19.33;17.33;;;20.10;99.90;;;;;;4961000;28;20073;-86
2021/07/12 06:36:57;;;;;;;16.23;14.52;;;20.10;99.90;;;;;;4960887;28;20035;-87
2021/07/12 06:39:28;;;;;;;15.77;13.65;;;20.10;99.90;;;;;;4961333;28;20126;-89
2021/07/12 06:41:54;;;;;;;16.20;13.00;;;20.10;99.90;;;;;;4961542;28;20114;-89
2021/07/12 06:44:19;;;;;;;13.60;12.20;;;20.20;99.90;;;;;;4961090;28;20058;-87
2021/07/12 06:46:47;;;;;;;15.05;12.73;;;20.30;99.90;;;;;;4979241;28;20031;-85
2021/07/12 06:49:12;;;;;;;13.88;11.85;;;20.40;99.90;;;;;;4963902;28;20038;-86
2021/07/12 06:51:39;;;;;;;12.93;11.63;;;20.50;99.90;;;;;;4957895;29;20047;-86
2021/07/12 06:54:05;;;;;;;11.63;10.43;;;20.60;99.90;;;;;;4959082;28;20074;-87
2021/07/12 06:56:30;;;;;;;11.63;10.25;;;20.70;99.90;;;;;;4978175;28;20035;-90
2021/07/12 06:58:56;;;;;;;13.07;11.70;;;20.80;99.90;;;;;;4967761;28;20026;-88
2021/07/12 07:01:22;;;;;;;14.57;12.40;;;20.90;99.90;;;;;;4960674;29;20043;-90
2021/07/12 07:03:48;;;;;;;16.35;13.38;;;20.90;99.90;;;;;;4945551;28;20034;-90
2021/07/12 07:06:14;;;;;;;14.57;13.07;;;20.90;99.90;;;;;;4945612;28;20039;-88
2021/07/12 07:08:40;;;;;;;13.32;11.93;;;20.80;99.90;;;;;;4961236;28;20039;-87
2021/07/12 07:11:05;;;;;;;14.20;12.80;;;20.80;99.90;;;;;;4960191;28;20167;-86
2021/07/12 07:13:31;;;;;;;14.88;13.38;;;20.80;99.90;;;;;;4959756;28;20511;-90
2021/07/12 07:15:57;;;;;;;14.88;12.82;;;20.80;99.90;;;;;;4961126;28;20130;-90
2021/07/12 07:18:22;;;;;;;14.15;12.70;;;20.80;99.90;;;;;;4958634;29;20145;-90
2021/07/12 07:20:48;;;;;;;15.80;13.43;;;20.90;99.90;;;;;;4959436;29;20043;-89
2021/07/12 07:23:14;;;;;;;12.75;11.45;;;21.00;99.90;;;;;;4963998;28;20063;-90
2021/07/12 07:25:39;;;;;;;12.02;10.63;;;21.00;99.90;;;;;;4977511;28;20043;-87
2021/07/12 07:28:05;;;;;;;11.80;10.30;;;21.10;99.90;;;;;;4964763;28;20031;-87
2021/07/12 07:30:32;;;;;;;11.80;10.52;;;21.20;99.90;;;;;;4954198;28;20090;-86
2021/07/12 07:32:58;;;;;;;11.95;10.75;;;21.30;99.90;;;;;;4977314;28;20030;-87
2021/07/12 07:35:24;;;;;;;15.20;13.60;;;21.40;99.90;;;;;;4960967;28;20043;-89
2021/07/12 07:37:50;;;;;;;12.38;11.07;;;21.40;99.90;;;;;;4960013;28;20078;-89
2021/07/12 07:40:21;;;;;;;10.57;9.35;;;21.50;99.90;;;;;;4965056;28;20035;-88
2021/07/12 07:45:24;;;;;;;14.40;11.98;;;21.60;99.90;;;;;;5012802;23;20081;-87
2021/07/12 07:47:51;;;;;;;12.20;10.43;;;21.60;99.90;;;;;;4977803;28;20587;-88
2021/07/12 07:50:17;;;;;;;12.30;10.57;;;21.70;99.90;;;;;;4978885;28;20039;-90
2021/07/12 07:52:43;;;;;;;12.55;10.63;;;21.70;99.90;;;;;;4944109;28;20045;-90
2021/07/12 07:55:09;;;;;;;13.48;10.60;;;21.80;99.90;;;;;;4961794;28;20115;-88
2021/07/12 07:57:40;;;;;;;13.00;11.73;;;21.80;99.90;;;;;;4961041;28;20031;-88
2021/07/12 08:00:13;;;;;;;12.43;11.13;;;21.90;99.90;;;;;;4951419;28;20561;-90
2021/07/12 08:02:39;;;;;;;14.48;11.85;;;22.00;99.90;;;;;;4960480;28;20070;-88
2021/07/12 08:05:06;;;;;;;13.65;12.25;;;22.10;99.90;;;;;;4973700;28;20031;-88
2021/07/12 08:07:33;;;;;;;12.77;10.82;;;22.10;99.90;;;;;;4959344;28;20027;-90
2021/07/12 08:09:58;;;;;;;9.68;8.68;;;22.20;99.90;;;;;;4959457;28;20366;-87
2021/07/12 08:12:24;;;;;;;11.63;9.68;;;22.30;99.90;;;;;;4957350;28;20042;-87
2021/07/12 08:14:50;;;;;;;9.35;8.20;;;22.30;99.90;;;;;;4958587;28;20039;-86
2021/07/12 08:17:15;;;;;;;9.07;7.82;;;22.30;99.90;;;;;;4973674;28;20030;-87
2021/07/12 08:19:41;;;;;;;8.13;6.90;;;22.40;99.90;;;;;;4958441;28;20098;-88
2021/07/12 08:22:07;;;;;;;7.85;7.00;;;22.50;99.90;;;;;;4958863;28;20043;-87
2021/07/12 08:24:33;;;;;;;8.05;7.25;;;22.50;99.90;;;;;;4976092;28;20031;-87
2021/07/12 08:27:01;;;;;;;7.25;5.85;;;22.70;99.90;;;;;;4958956;28;20093;-90
2021/07/12 08:29:27;;;;;;;7.85;6.53;;;22.80;99.90;;;;;;4970529;28;20035;-89
2021/07/12 08:31:52;;;;;;;7.20;6.15;;;22.80;99.90;;;;;;4956500;28;20124;-89
2021/07/12 08:34:18;;;;;;;8.38;6.45;;;22.90;99.90;;;;;;4956689;29;20035;-87
2021/07/12 08:36:44;;;;;;;7.80;6.90;;;22.90;99.90;;;;;;4959427;28;20049;-88
2021/07/12 08:39:12;;;;;;;8.95;7.22;;;23.00;99.90;;;;;;4959666;28;20011;-89
2021/07/12 08:41:38;;;;;;;8.05;6.25;;;23.00;99.90;;;;;;4959715;28;20023;-89
2021/07/12 08:44:06;;;;;;;6.50;5.35;;;23.10;99.90;;;;;;4964203;28;20055;-87
2021/07/12 08:46:32;;;;;;;6.80;5.57;;;23.30;99.90;;;;;;4973192;28;20026;-88
2021/07/12 08:48:58;;;;;;;9.27;5.88;;;23.40;99.90;;;;;;4974605;28;20037;-89
2021/07/12 08:51:23;;;;;;;6.90;5.95;;;23.50;99.90;;;;;;4972907;28;20047;-89
2021/07/12 08:53:49;;;;;;;7.53;6.45;;;23.50;99.90;;;;;;4976893;28;20035;-88
2021/07/12 08:56:19;;;;;;;10.88;7.43;;;23.60;99.90;;;;;;4985337;28;20035;-88
2021/07/12 08:58:46;;;;;;;7.32;5.55;;;23.70;99.90;;;;;;4989695;28;20054;-90
2021/07/12 09:01:12;;;;;;;7.70;5.45;;;23.80;99.90;;;;;;4976431;28;20038;-88
2021/07/12 09:03:40;;;;;;;5.82;4.93;;;23.90;99.90;;;;;;4973724;28;20110;-88
2021/07/12 09:06:07;;;;;;;7.28;6.10;;;24.00;99.90;;;;;;4975059;28;20030;-91
2021/07/12 09:08:47;;;;;;;6.53;5.07;;;24.00;99.90;;;;;;4960273;28;20184;-90
2021/07/12 09:11:19;;;;;;;7.53;5.25;;;24.20;99.90;;;;;;4957904;29;20043;-88
2021/07/12 09:13:50;;;;;;;9.05;6.03;;;24.30;99.90;;;;;;4977380;28;20077;-89
2021/07/12 09:16:49;;;;;;;7.05;5.20;;;24.40;99.90;;;;;;4984639;28;20090;-88
2021/07/12 09:19:23;;;;;;;6.68;4.85;;;24.50;99.90;;;;;;4975082;28;20524;-91
2021/07/12 09:21:53;;;;;;;5.30;4.07;;;24.60;99.90;;;;;;4990475;28;20704;-92
2021/07/12 09:24:45;;;;;;;6.72;4.47;;;24.60;99.90;;;;;;4981494;28;20453;-91
2021/07/12 09:27:19;;;;;;;7.90;5.53;;;24.70;99.90;;;;;;4977541;28;20038;-90
2021/07/12 09:29:50;;;;;;;6.35;5.30;;;24.80;99.90;;;;;;4983650;28;20027;-89
2021/07/12 09:32:21;;;;;;;6.18;4.97;;;24.80;99.90;;;;;;4994699;28;20077;-90
2021/07/12 09:34:50;;;;;;;6.43;5.38;;;24.90;99.90;;;;;;4981568;28;20054;-90
2021/07/12 09:37:18;;;;;;;5.45;4.68;;;25.00;99.90;;;;;;4989898;28;20254;-89
2021/07/12 09:39:49;;;;;;;5.53;3.85;;;25.40;99.90;;;;;;4984554;28;20062;-87
2021/07/12 09:42:21;;;;;;;6.40;3.70;;;26.50;99.90;;;;;;4993157;28;20034;-88
2021/07/12 09:44:50;;;;;;;4.57;3.78;;;27.60;99.90;;;;;;4965538;28;20122;-90
2021/07/12 09:47:20;;;;;;;6.85;4.43;;;28.60;99.80;;;;;;4953853;29;20070;-89
2021/07/12 09:49:49;;;;;;;5.88;4.07;;;29.20;97.80;;;;;;4945146;29;20035;-93
2021/07/12 09:52:19;;;;;;;4.57;3.17;;;29.60;96.50;;;;;;4942421;28;20059;-90
2021/07/12 09:54:47;;;;;;;3.42;2.63;;;30.00;96.10;;;;;;4962843;28;20040;-91
2021/07/12 09:57:19;;;;;;;4.10;3.50;;;30.40;95.70;;;;;;4953382;29;20051;-91
2021/07/12 10:00:10;;;;;;;3.72;2.80;;;30.80;94.10;;;;;;4949286;28;20501;-92
2021/07/12 10:02:37;;;;;;;3.83;3.05;;;31.20;93.80;;;;;;4962776;28;20057;-92
2021/07/12 10:05:08;;;;;;;3.42;2.88;;;31.50;93.00;;;;;;4962200;28;20034;-89
2021/07/12 10:07:34;;;;;;;4.55;3.20;;;31.80;92.70;;;;;;4948220;29;20130;-92
2021/07/12 10:12:25;;;;;;;4.55;4.03;;;31.90;89.30;;;;;;5064467;23;20069;-91
2021/07/12 10:14:56;;;;;;;4.15;3.28;;;31.60;86.80;;;;;;4977081;28;20378;-88
2021/07/12 10:17:23;;;;;;;4.90;3.03;;;31.40;87.20;;;;;;4990671;28;20022;-89
2021/07/12 10:19:49;;;;;;;4.28;3.22;;;31.40;86.90;;;;;;4967804;28;20117;-90
2021/07/12 10:22:16;;;;;;;3.97;3.05;;;31.40;86.00;;;;;;4959824;28;20548;-88
2021/07/12 10:24:45;;;;;;;4.85;4.00;;;31.70;86.50;;;;;;4960136;28;20034;-87
2021/07/12 10:27:24;;;;;;;4.38;2.88;;;32.00;84.40;;;;;;4972997;28;20041;-91
2021/07/12 10:29:51;;;;;;;4.60;3.70;;;32.10;84.60;;;;;;5011806;28;20114;-88
2021/07/12 10:32:22;;;;;;;4.85;3.38;;;32.50;81.90;;;;;;4998006;28;20046;-89
2021/07/12 10:34:53;;;;;;;4.35;3.35;;;32.80;82.00;;;;;;4980757;28;20050;-88
2021/07/12 10:37:21;;;;;;;2.65;2.30;;;33.20;81.40;;;;;;4965476;28;20112;-89
2021/07/12 10:40:13;;;;;;;4.43;2.60;;;33.60;81.20;;;;;;4973529;28;20483;-90
2021/07/12 10:42:53;;;;;;;3.38;2.72;;;34.20;80.10;;;;;;4964324;28;20030;-89
2021/07/12 10:45:27;;;;;;;3.67;3.00;;;34.50;78.40;;;;;;5000263;28;20076;-91
2021/07/12 10:47:59;;;;;;;2.70;2.40;;;33.80;76.40;;;;;;4964653;28;20039;-90
2021/07/12 10:50:44;;;;;;;3.88;3.03;;;33.20;77.60;;;;;;4964044;28;20062;-92
2021/07/12 10:53:16;;;;;;;3.17;2.72;;;33.50;77.80;;;;;;4979940;28;20039;-91
2021/07/12 10:56:08;;;;;;;3.03;2.72;;;33.30;77.00;;;;;;4960289;28;20032;-93
2021/07/12 10:58:37;;;;;;;3.08;2.75;;;32.90;77.70;;;;;;4961948;28;20030;-93
2021/07/12 11:01:07;;;;;;;3.38;2.50;;;32.60;78.60;;;;;;4965824;28;20531;-96
2021/07/12 11:03:36;;;;;;;4.10;2.72;;;32.60;78.30;;;;;;4962749;28;20023;-91
2021/07/12 11:06:06;;;;;;;4.75;3.33;;;32.40;77.00;;;;;;4963566;28;20050;-91
2021/07/12 11:08:47;;;;;;;4.50;3.17;;;32.10;74.00;;;;;;4962051;28;20057;-89
2021/07/12 11:11:36;;;;;;;4.50;3.92;;;32.20;75.10;;;;;;4962364;28;20051;-90
2021/07/12 11:14:17;;;;;;;4.68;3.25;;;31.80;73.70;;;;;;4964408;28;20015;-91
2021/07/12 11:16:46;;;;;;;3.92;3.28;;;31.90;75.30;;;;;;4964029;28;20038;-92
2021/07/12 11:19:45;;;;;;;3.25;2.63;;;32.30;74.80;;;;;;4963778;28;20038;-91
2021/07/12 11:22:14;;;;;;;3.60;2.47;;;32.80;73.60;;;;;;4922448;28;20121;-91
2021/07/12 11:25:11;;;;;;;3.17;2.20;;;33.20;72.60;;;;;;4974391;28;20489;-89
2021/07/12 11:27:37;;;;;;;3.50;2.65;;;33.60;72.30;;;;;;4997775;28;20062;-89
2021/07/12 11:30:29;;;;;;;3.03;2.33;;;33.60;71.80;;;;;;4980977;28;20126;-89
2021/07/12 11:32:56;;;;;;;4.03;2.92;;;33.40;72.00;;;;;;4963902;28;20045;-90
2021/07/12 11:35:30;;;;;;;4.70;2.92;;;32.90;72.40;;;;;;4963060;28;20030;-89
2021/07/12 11:38:04;;;;;;;4.22;3.28;;;32.30;72.90;;;;;;4965690;28;20070;-89
2021/07/12 11:40:30;;;;;;;3.58;3.00;;;31.70;73.30;;;;;;4978364;28;20026;-88
2021/07/12 11:43:03;;;;;;;3.70;3.30;;;31.20;74.30;;;;;;4985741;28;20134;-89
2021/07/12 11:45:29;;;;;;;3.75;2.92;;;30.90;75.00;;;;;;4984462;28;20042;-88
2021/07/12 11:47:55;;;;;;;3.17;2.88;;;30.50;75.90;;;;;;4973027;28;20457;-88
2021/07/12 11:50:21;;;;;;;4.05;3.28;;;30.40;76.70;;;;;;4988422;28;20051;-89
2021/07/12 11:52:50;;;;;;;4.72;3.90;;;30.20;77.20;;;;;;4966532;28;20068;-91
2021/07/12 11:55:19;;;;;;;5.95;3.67;;;29.90;77.20;;;;;;4974671;28;20090;-90
2021/07/12 11:57:48;;;;;;;4.03;3.22;;;29.70;77.90;;;;;;4999125;28;20042;-88
2021/07/12 12:00:26;;;;;;;5.05;3.50;;;29.60;78.60;;;;;;4980990;28;20018;-89
2021/07/12 12:03:02;;;;;;;4.32;3.50;;;29.70;78.50;;;;;;4979458;28;20041;-89
2021/07/12 12:05:29;;;;;;;4.60;3.15;;;29.80;78.50;;;;;;4980971;28;20030;-88
2021/07/12 12:07:58;;;;;;;4.70;3.50;;;29.90;78.70;;;;;;4994783;28;20018;-90
2021/07/12 12:10:28;;;;;;;3.80;3.35;;;29.90;78.40;;;;;;4992876;28;20026;-90
2021/07/12 12:13:18;;;;;;;4.35;3.30;;;29.80;78.70;;;;;;4962030;28;20042;-89
2021/07/12 12:15:49;;;;;;;4.75;3.95;;;29.60;78.90;;;;;;4969471;29;20039;-89
2021/07/12 12:18:19;;;;;;;4.05;3.38;;;29.50;79.40;;;;;;4960806;28;20128;-87
2021/07/12 12:20:52;;;;;;;4.57;3.85;;;29.30;80.30;;;;;;4967927;28;20023;-90
2021/07/12 12:23:22;;;;;;;6.10;4.15;;;29.20;80.70;;;;;;4976437;28;20042;-88
2021/07/12 12:26:17;;;;;;;4.78;4.03;;;28.90;80.90;;;;;;4979136;28;20042;-91
2021/07/12 12:28:54;;;;;;;4.10;3.55;;;28.80;81.40;;;;;;4978773;28;20043;-89
2021/07/12 12:31:24;;;;;;;4.80;3.83;;;28.60;82.00;;;;;;4967977;28;20078;-89
2021/07/12 12:34:07;;;;;;;5.07;3.70;;;28.50;82.20;;;;;;4985490;28;20042;-90
2021/07/12 12:36:35;;;;;;;4.15;3.25;;;28.30;82.40;;;;;;4990409;28;20037;-90
2021/07/12 12:39:06;;;;;;;3.63;3.17;;;28.20;82.70;;;;;;4962105;28;20011;-88
2021/07/12 12:41:34;;;;;;;4.47;3.47;;;28.20;83.20;;;;;;4968018;28;20082;-91
2021/07/12 12:44:07;;;;;;;4.40;4.00;;;28.30;83.20;;;;;;4970623;28;20046;-88
2021/07/12 12:46:35;;;;;;;4.85;3.78;;;28.30;83.00;;;;;;4971515;28;20039;-92
2021/07/12 12:49:16;;;;;;;5.63;3.65;;;28.30;83.40;;;;;;4958692;28;20617;-91
2021/07/12 12:51:56;;;;;;;3.67;3.22;;;28.30;83.60;;;;;;4964097;28;20049;-90
2021/07/12 12:54:32;;;;;;;3.70;3.10;;;28.30;83.80;;;;;;4959666;28;20080;-90
2021/07/12 12:57:08;;;;;;;5.00;3.97;;;28.40;83.90;;;;;;4965169;28;20046;-90
2021/07/12 13:00:09;;;;;;;4.88;3.80;;;28.30;83.80;;;;;;4970400;28;20111;-90